Urmărește-ne

Aeroportul Otopeni este temporar închis din cauza condițiilor meteo nefavorabile (foto)

  1. BoardingPass.ro
  2. Știri
  3. Aeroportul Otopeni este temporar închis din cauza condițiilor meteo nefavorabile (foto)

Știri

Aeroportul Otopeni este temporar închis din cauza condițiilor meteo nefavorabile (foto)

Actualizare 09:35: conform METAR-ului emis la ora 09:30LT vizibilitate 300m. Aterizările și decolările au fost reluate.
METAR: LROP 110730Z VRB01KT 0300 R08R/0400 R26L/0300N FG OVC001 04/03 Q1023 BECMG 0600=
___________________________
Actualizare 09:20: situația revine la normal. Vizibilitatea a crescut puțin, câteva aeronave au decolat iar zborul Turkish Airlines care a așteptat în holding pattern mai bine de o oră a aterizat cu bine. Urmează să mai aterizeze încă două zboruri Ryanair după care vor urma aproximativ 10 decolări.


___________________________
Actualizare 09:05: traficul aerian este în continuare afectat de ceață. Turkish Airlines și un zbor Ryanair venit de la Ciampino vor încerca să aterizeze.
NOTAM:
(A3560/18 NOTAMR A2600/18
Q) LRBB/QFAXX/IV/NBO/A /000/999/4434N02605E005
A) LROP B) 1811091156 C) 1902091200
E) LOW VISIBILITY OPERATIONS PROCEDURES ARE ALLOWED ONLY ON CAT II,
RVR GREATER THAN 350M.)

METAR:
LROP 110700Z VRB01KT 0250 R08R/0375N R26L/0350N FG VV002 03/02 Q1023 BECMG 0600=


___________________________
Aeroportul Internațional Henri Coandă din Otopeni este închis de aproximativ 40 de minute din cauza condițiilor meteo nefavorabile.

Citește și  LOT a inaugurat primul său lounge din Budapesta (foto)

Ceața densă a dat peste cap activitatea aeroportuară iar mai multe aeronave au fost redirecționate către aeroporturi din zonă.

În acest moment un Boeing 737-800NG al companiei Blue Air care a decolat de la Cluj Napoca, cu destinația Otopeni se îndreaptă spre Constanța. În același timp, un Airbus A330 al companiei Turkish Airlines care a venit de la Istanbul este în așteptare în sud-estul Bucureștiului de mai bine de 30 de minute.

Peste 10 zboruri care trebuiau să decoleze între 07:50 și 09:00 încă așteaptă o îmbunătățire a condițiilor meteo.

Ultimul METAR publicat indica o vizibilitate de numai 150 de metri și ceață, date similare fiind indicate și în METAR-urile emise mai de dimineață.
LROP 110630Z 02003KT 0150 R08R/0275N R26L/0350N FG VV001 03/02 Q1023 NOSIG=

Probleme similare au fost zilele acestea și la Cluj Napoca, mai multe aeronave au fost nevoite să aterizeze la Sibiu din cauza ceții dense de pe aeroportul clujean.

Ai avut un zbor anulat sau întârziat?
SOLICITĂ ACUM DESPĂGUBIRI DE PÂNĂ LA 600 DE EURO!
AirHelp get compensation

Fondator al siteului BoardingPass.ro. Pasionat de internet, marketing, călătorii, aviația comercială. A zburat cu peste 50 de companii aeriene din întreaga lume, cu majoritatea modelelor de avioane aflate în serviciul comercial și a vizitat peste 100 de aeroporturi de pe șase continente. Îi poți urmări istoricul zborurilor pe JetItUP.com.

Click pentru a comenta

Vrei să zici ceva?

Adresa ta de email nu va fi publicată. Câmpurile obligatorii sunt marcate cu *

Acest sit folosește Akismet pentru a reduce spamul. Află cum sunt procesate datele comentariilor tale.

Știrile BoardingPass pe WhatsApp

Abonează-te la newsletterul nostru, acum îți putem trimite direct pe WhatsApp cele mai importante știri.

Click pentru abonare »

Știrile BoardingPass pe WhatsApp

Promitem că nu o să facem spam iar numărul tău de telefon nu va fi adăugat în nicio bază de date, vizibil altor abonați sau distribuit cu alte entități și parteneri.
Pentru dezabonare vă rugăm să ne trimiteți pe WhatsApp mesajul Clear to land!

Știrile BoardingPass pe WhatsApp

Acum te rugăm să adaugi numărul +40799889910 în lista ta de contacte cu numele BoardingPass.ro.

Pentru a finaliza abonarea este necesar să trimiți către noi, BoardingPass.ro, pe WhatsApp mesajul Clear for take-off!

Click pentru a trimite mesajul

Îți place BoardingPass?

Suține siteul cumpărând de pe FashionDays folosind acest link.
De asemenea, mai recomand și eMag.ro.
Ai avut un zbor anulat sau întârziat? SOLICITĂ ACUM DESPĂGUBIRI DE PÂNĂ LA 600 DE EURO! AirHelp get compensation

Suntem și pe…

Urmărește BoardingPass.ro pe Facebook     Urmărește BoardingPass.ro pe Instagram     Urmărește BoardingPass.ro pe Twitter     Urmărește BoardingPass.ro pe LinkedIn     Urmărește BoardingPass.ro pe RSS
Publicitate

Articole populare

Publicitate
Mergi sus